sensor_id;sensor_type;location;lat;lon;timestamp;temperature;humidity
63313;DHT22;49442;45.640;13.812;2023-04-04T00:00:15;5.30;66.90
63313;DHT22;49442;45.640;13.812;2023-04-04T00:02:41;5.30;67.00
63313;DHT22;49442;45.640;13.812;2023-04-04T00:05:06;5.30;66.40
63313;DHT22;49442;45.640;13.812;2023-04-04T00:07:33;5.30;65.90
63313;DHT22;49442;45.640;13.812;2023-04-04T00:09:58;5.30;66.40
63313;DHT22;49442;45.640;13.812;2023-04-04T00:12:24;5.20;66.40
63313;DHT22;49442;45.640;13.812;2023-04-04T00:14:50;5.20;66.90
63313;DHT22;49442;45.640;13.812;2023-04-04T00:17:16;5.10;66.60
63313;DHT22;49442;45.640;13.812;2023-04-04T00:19:42;5.10;66.80
63313;DHT22;49442;45.640;13.812;2023-04-04T00:22:08;5.10;67.40
63313;DHT22;49442;45.640;13.812;2023-04-04T00:24:34;5.10;67.30
63313;DHT22;49442;45.640;13.812;2023-04-04T00:27:00;5.10;67.30
63313;DHT22;49442;45.640;13.812;2023-04-04T00:29:26;5.10;66.90
63313;DHT22;49442;45.640;13.812;2023-04-04T00:31:52;5.10;67.30
63313;DHT22;49442;45.640;13.812;2023-04-04T00:34:17;5.00;66.90
63313;DHT22;49442;45.640;13.812;2023-04-04T00:36:43;4.90;66.40
63313;DHT22;49442;45.640;13.812;2023-04-04T00:39:09;5.00;67.30
63313;DHT22;49442;45.640;13.812;2023-04-04T00:41:35;5.00;67.30
63313;DHT22;49442;45.640;13.812;2023-04-04T00:44:00;4.90;66.70
63313;DHT22;49442;45.640;13.812;2023-04-04T00:46:27;4.90;67.20
63313;DHT22;49442;45.640;13.812;2023-04-04T00:48:54;4.90;66.60
63313;DHT22;49442;45.640;13.812;2023-04-04T00:51:20;4.90;66.00
63313;DHT22;49442;45.640;13.812;2023-04-04T00:53:47;4.90;65.70
63313;DHT22;49442;45.640;13.812;2023-04-04T00:56:13;4.90;65.40
63313;DHT22;49442;45.640;13.812;2023-04-04T00:58:40;4.90;66.20
63313;DHT22;49442;45.640;13.812;2023-04-04T01:01:07;4.90;66.70
63313;DHT22;49442;45.640;13.812;2023-04-04T01:03:33;4.90;66.50
63313;DHT22;49442;45.640;13.812;2023-04-04T01:06:00;4.90;65.50
63313;DHT22;49442;45.640;13.812;2023-04-04T01:08:27;4.90;65.50
63313;DHT22;49442;45.640;13.812;2023-04-04T01:10:54;4.90;65.60
63313;DHT22;49442;45.640;13.812;2023-04-04T01:13:20;4.90;65.10
63313;DHT22;49442;45.640;13.812;2023-04-04T01:15:46;4.90;65.10
63313;DHT22;49442;45.640;13.812;2023-04-04T01:18:15;4.90;63.90
63313;DHT22;49442;45.640;13.812;2023-04-04T01:20:56;4.90;65.40
63313;DHT22;49442;45.640;13.812;2023-04-04T01:23:31;4.90;65.60
63313;DHT22;49442;45.640;13.812;2023-04-04T01:26:02;4.90;65.20
63313;DHT22;49442;45.640;13.812;2023-04-04T01:28:28;4.80;64.80
63313;DHT22;49442;45.640;13.812;2023-04-04T01:30:53;4.80;65.50
63313;DHT22;49442;45.640;13.812;2023-04-04T01:33:30;4.80;63.90
63313;DHT22;49442;45.640;13.812;2023-04-04T01:36:10;4.80;64.80
63313;DHT22;49442;45.640;13.812;2023-04-04T01:41:20;4.80;64.70
63313;DHT22;49442;45.640;13.812;2023-04-04T01:43:46;4.80;65.00
63313;DHT22;49442;45.640;13.812;2023-04-04T01:46:12;4.80;65.00
63313;DHT22;49442;45.640;13.812;2023-04-04T01:48:41;4.80;65.10
63313;DHT22;49442;45.640;13.812;2023-04-04T01:51:07;4.70;65.10
63313;DHT22;49442;45.640;13.812;2023-04-04T01:53:33;4.70;64.40
63313;DHT22;49442;45.640;13.812;2023-04-04T01:55:59;4.70;65.10
63313;DHT22;49442;45.640;13.812;2023-04-04T01:58:24;4.70;64.60
63313;DHT22;49442;45.640;13.812;2023-04-04T02:00:51;4.70;65.10
63313;DHT22;49442;45.640;13.812;2023-04-04T02:03:16;4.70;65.10
63313;DHT22;49442;45.640;13.812;2023-04-04T02:05:42;4.70;64.70
63313;DHT22;49442;45.640;13.812;2023-04-04T02:08:08;4.60;64.70
63313;DHT22;49442;45.640;13.812;2023-04-04T02:10:33;4.70;65.50
63313;DHT22;49442;45.640;13.812;2023-04-04T02:12:59;4.60;65.70
63313;DHT22;49442;45.640;13.812;2023-04-04T02:15:25;4.60;64.70
63313;DHT22;49442;45.640;13.812;2023-04-04T02:17:51;4.50;65.00
63313;DHT22;49442;45.640;13.812;2023-04-04T02:20:17;4.50;66.00
63313;DHT22;49442;45.640;13.812;2023-04-04T02:22:52;4.50;65.30
63313;DHT22;49442;45.640;13.812;2023-04-04T02:25:18;4.50;64.70
63313;DHT22;49442;45.640;13.812;2023-04-04T02:27:44;4.50;65.50
63313;DHT22;49442;45.640;13.812;2023-04-04T02:30:10;4.50;65.30
63313;DHT22;49442;45.640;13.812;2023-04-04T02:32:36;4.50;64.50
63313;DHT22;49442;45.640;13.812;2023-04-04T02:35:02;4.50;65.70
63313;DHT22;49442;45.640;13.812;2023-04-04T02:37:28;4.40;65.10
63313;DHT22;49442;45.640;13.812;2023-04-04T02:39:55;4.40;65.20
63313;DHT22;49442;45.640;13.812;2023-04-04T02:42:20;4.40;66.20
63313;DHT22;49442;45.640;13.812;2023-04-04T02:44:46;4.30;65.60
63313;DHT22;49442;45.640;13.812;2023-04-04T02:47:12;4.30;66.40
63313;DHT22;49442;45.640;13.812;2023-04-04T02:49:37;4.30;66.30
63313;DHT22;49442;45.640;13.812;2023-04-04T02:52:03;4.40;65.00
63313;DHT22;49442;45.640;13.812;2023-04-04T02:54:29;4.30;65.20
63313;DHT22;49442;45.640;13.812;2023-04-04T02:56:55;4.30;66.80
63313;DHT22;49442;45.640;13.812;2023-04-04T02:59:21;4.30;66.20
63313;DHT22;49442;45.640;13.812;2023-04-04T03:01:46;4.30;65.00
63313;DHT22;49442;45.640;13.812;2023-04-04T03:04:12;4.30;66.00
63313;DHT22;49442;45.640;13.812;2023-04-04T03:06:38;4.30;66.30
63313;DHT22;49442;45.640;13.812;2023-04-04T03:09:06;4.20;65.90
63313;DHT22;49442;45.640;13.812;2023-04-04T03:11:31;4.20;65.20
63313;DHT22;49442;45.640;13.812;2023-04-04T03:13:57;4.20;65.40
63313;DHT22;49442;45.640;13.812;2023-04-04T03:16:23;4.20;66.50
63313;DHT22;49442;45.640;13.812;2023-04-04T03:18:50;4.20;66.00
63313;DHT22;49442;45.640;13.812;2023-04-04T03:21:15;4.20;65.00
63313;DHT22;49442;45.640;13.812;2023-04-04T03:23:41;4.10;65.30
63313;DHT22;49442;45.640;13.812;2023-04-04T03:26:07;4.20;65.40
63313;DHT22;49442;45.640;13.812;2023-04-04T03:28:33;4.20;65.40
63313;DHT22;49442;45.640;13.812;2023-04-04T03:31:05;4.20;65.60
63313;DHT22;49442;45.640;13.812;2023-04-04T03:33:34;4.10;65.30
63313;DHT22;49442;45.640;13.812;2023-04-04T03:36:00;4.10;65.40
63313;DHT22;49442;45.640;13.812;2023-04-04T03:38:26;4.10;65.30
63313;DHT22;49442;45.640;13.812;2023-04-04T03:41:00;4.10;65.60
63313;DHT22;49442;45.640;13.812;2023-04-04T03:43:27;4.00;64.90
63313;DHT22;49442;45.640;13.812;2023-04-04T03:45:53;4.00;66.10
63313;DHT22;49442;45.640;13.812;2023-04-04T03:48:19;4.00;65.90
63313;DHT22;49442;45.640;13.812;2023-04-04T03:50:45;4.00;65.60
63313;DHT22;49442;45.640;13.812;2023-04-04T03:53:13;4.00;65.80
63313;DHT22;49442;45.640;13.812;2023-04-04T03:55:42;3.90;66.20
63313;DHT22;49442;45.640;13.812;2023-04-04T03:58:07;3.90;65.90
63313;DHT22;49442;45.640;13.812;2023-04-04T04:00:33;3.90;66.50
63313;DHT22;49442;45.640;13.812;2023-04-04T04:02:59;3.90;66.00
63313;DHT22;49442;45.640;13.812;2023-04-04T04:05:24;3.90;66.50
63313;DHT22;49442;45.640;13.812;2023-04-04T04:07:50;3.80;65.80
63313;DHT22;49442;45.640;13.812;2023-04-04T04:10:17;3.90;65.70
63313;DHT22;49442;45.640;13.812;2023-04-04T04:12:43;3.90;66.30
63313;DHT22;49442;45.640;13.812;2023-04-04T04:15:08;3.90;66.30
63313;DHT22;49442;45.640;13.812;2023-04-04T04:17:38;3.90;66.70
63313;DHT22;49442;45.640;13.812;2023-04-04T04:20:06;3.80;65.70
63313;DHT22;49442;45.640;13.812;2023-04-04T04:22:32;3.90;65.90
63313;DHT22;49442;45.640;13.812;2023-04-04T04:24:57;3.80;66.30
63313;DHT22;49442;45.640;13.812;2023-04-04T04:27:23;3.70;67.20
63313;DHT22;49442;45.640;13.812;2023-04-04T04:29:49;3.80;66.40
63313;DHT22;49442;45.640;13.812;2023-04-04T04:32:16;3.80;65.40
63313;DHT22;49442;45.640;13.812;2023-04-04T04:34:42;3.70;66.10
63313;DHT22;49442;45.640;13.812;2023-04-04T04:37:07;3.70;66.00
63313;DHT22;49442;45.640;13.812;2023-04-04T04:39:33;3.70;66.60
63313;DHT22;49442;45.640;13.812;2023-04-04T04:41:59;3.70;65.70
63313;DHT22;49442;45.640;13.812;2023-04-04T04:44:25;3.70;65.50
63313;DHT22;49442;45.640;13.812;2023-04-04T04:46:51;3.70;65.90
63313;DHT22;49442;45.640;13.812;2023-04-04T04:49:17;3.60;67.00
63313;DHT22;49442;45.640;13.812;2023-04-04T04:51:42;3.70;66.30
63313;DHT22;49442;45.640;13.812;2023-04-04T04:54:08;3.70;66.40
63313;DHT22;49442;45.640;13.812;2023-04-04T04:56:35;3.60;66.50
63313;DHT22;49442;45.640;13.812;2023-04-04T04:59:01;3.60;66.00
63313;DHT22;49442;45.640;13.812;2023-04-04T05:01:27;3.60;66.90
63313;DHT22;49442;45.640;13.812;2023-04-04T05:03:53;3.60;65.70
63313;DHT22;49442;45.640;13.812;2023-04-04T05:06:19;3.60;66.00
63313;DHT22;49442;45.640;13.812;2023-04-04T05:08:45;3.60;66.50
63313;DHT22;49442;45.640;13.812;2023-04-04T05:11:10;3.70;66.30
63313;DHT22;49442;45.640;13.812;2023-04-04T05:13:36;3.70;66.10
63313;DHT22;49442;45.640;13.812;2023-04-04T05:16:02;3.60;66.00
63313;DHT22;49442;45.640;13.812;2023-04-04T05:18:28;3.70;66.00
63313;DHT22;49442;45.640;13.812;2023-04-04T05:20:54;3.70;67.10
63313;DHT22;49442;45.640;13.812;2023-04-04T05:23:20;3.70;66.50
63313;DHT22;49442;45.640;13.812;2023-04-04T05:25:49;3.70;66.10
63313;DHT22;49442;45.640;13.812;2023-04-04T05:28:16;3.70;65.30
63313;DHT22;49442;45.640;13.812;2023-04-04T05:30:41;3.70;65.70
63313;DHT22;49442;45.640;13.812;2023-04-04T05:33:07;3.70;66.10
63313;DHT22;49442;45.640;13.812;2023-04-04T05:35:33;3.70;66.50
63313;DHT22;49442;45.640;13.812;2023-04-04T05:37:59;3.60;66.90
63313;DHT22;49442;45.640;13.812;2023-04-04T05:40:24;3.70;66.00
63313;DHT22;49442;45.640;13.812;2023-04-04T05:42:57;3.80;66.30
63313;DHT22;49442;45.640;13.812;2023-04-04T05:45:23;3.70;65.50
63313;DHT22;49442;45.640;13.812;2023-04-04T05:47:49;3.80;65.30
63313;DHT22;49442;45.640;13.812;2023-04-04T05:50:15;3.90;64.90
63313;DHT22;49442;45.640;13.812;2023-04-04T05:52:40;3.90;67.00
63313;DHT22;49442;45.640;13.812;2023-04-04T05:55:06;3.80;66.20
63313;DHT22;49442;45.640;13.812;2023-04-04T05:57:32;3.90;66.00
63313;DHT22;49442;45.640;13.812;2023-04-04T05:59:58;4.00;65.80
63313;DHT22;49442;45.640;13.812;2023-04-04T06:02:24;4.10;64.50
63313;DHT22;49442;45.640;13.812;2023-04-04T06:04:50;4.10;64.40
63313;DHT22;49442;45.640;13.812;2023-04-04T06:07:16;4.10;63.60
63313;DHT22;49442;45.640;13.812;2023-04-04T06:09:42;4.10;64.10
63313;DHT22;49442;45.640;13.812;2023-04-04T06:12:08;4.10;65.10
63313;DHT22;49442;45.640;13.812;2023-04-04T06:14:37;4.20;63.70
63313;DHT22;49442;45.640;13.812;2023-04-04T06:17:03;4.20;64.40
63313;DHT22;49442;45.640;13.812;2023-04-04T06:19:29;4.30;65.20
63313;DHT22;49442;45.640;13.812;2023-04-04T06:21:55;4.30;64.20
63313;DHT22;49442;45.640;13.812;2023-04-04T06:24:21;4.40;64.20
63313;DHT22;49442;45.640;13.812;2023-04-04T06:26:46;4.40;64.60
63313;DHT22;49442;45.640;13.812;2023-04-04T06:29:16;4.40;63.40
63313;DHT22;49442;45.640;13.812;2023-04-04T06:31:42;4.40;64.10
63313;DHT22;49442;45.640;13.812;2023-04-04T06:34:08;4.40;63.70
63313;DHT22;49442;45.640;13.812;2023-04-04T06:36:34;4.50;63.50
63313;DHT22;49442;45.640;13.812;2023-04-04T06:39:00;4.60;63.70
63313;DHT22;49442;45.640;13.812;2023-04-04T06:41:26;4.60;62.50
63313;DHT22;49442;45.640;13.812;2023-04-04T06:43:51;4.60;62.70
63313;DHT22;49442;45.640;13.812;2023-04-04T06:46:17;4.60;62.20
63313;DHT22;49442;45.640;13.812;2023-04-04T06:48:43;4.70;63.60
63313;DHT22;49442;45.640;13.812;2023-04-04T06:51:09;4.80;63.80
63313;DHT22;49442;45.640;13.812;2023-04-04T06:53:36;4.90;62.70
63313;DHT22;49442;45.640;13.812;2023-04-04T06:56:03;4.80;62.70
63313;DHT22;49442;45.640;13.812;2023-04-04T06:58:29;4.90;63.40
63313;DHT22;49442;45.640;13.812;2023-04-04T07:00:55;4.90;62.30
63313;DHT22;49442;45.640;13.812;2023-04-04T07:03:21;5.00;62.70
63313;DHT22;49442;45.640;13.812;2023-04-04T07:05:48;5.00;63.00
63313;DHT22;49442;45.640;13.812;2023-04-04T07:08:14;5.10;61.50
63313;DHT22;49442;45.640;13.812;2023-04-04T07:10:40;5.20;62.00
63313;DHT22;49442;45.640;13.812;2023-04-04T07:13:05;5.10;61.40
63313;DHT22;49442;45.640;13.812;2023-04-04T07:15:31;5.20;61.30
63313;DHT22;49442;45.640;13.812;2023-04-04T07:17:57;5.20;60.20
63313;DHT22;49442;45.640;13.812;2023-04-04T07:20:22;5.30;60.60
63313;DHT22;49442;45.640;13.812;2023-04-04T07:22:48;5.30;61.10
63313;DHT22;49442;45.640;13.812;2023-04-04T07:25:14;5.40;60.90
63313;DHT22;49442;45.640;13.812;2023-04-04T07:27:39;5.50;60.50
63313;DHT22;49442;45.640;13.812;2023-04-04T07:30:06;5.60;60.70
63313;DHT22;49442;45.640;13.812;2023-04-04T07:32:32;5.60;60.40
63313;DHT22;49442;45.640;13.812;2023-04-04T07:34:58;5.60;59.60
63313;DHT22;49442;45.640;13.812;2023-04-04T07:37:24;5.60;59.60
63313;DHT22;49442;45.640;13.812;2023-04-04T07:39:52;5.70;61.10
63313;DHT22;49442;45.640;13.812;2023-04-04T07:42:18;5.90;59.60
63313;DHT22;49442;45.640;13.812;2023-04-04T07:44:50;6.00;59.20
63313;DHT22;49442;45.640;13.812;2023-04-04T07:47:17;6.10;58.20
63313;DHT22;49442;45.640;13.812;2023-04-04T07:49:43;6.10;59.50
63313;DHT22;49442;45.640;13.812;2023-04-04T07:52:09;6.20;58.80
63313;DHT22;49442;45.640;13.812;2023-04-04T07:54:35;6.20;58.50
63313;DHT22;49442;45.640;13.812;2023-04-04T07:57:01;6.10;58.70
63313;DHT22;49442;45.640;13.812;2023-04-04T07:59:33;6.30;59.40
63313;DHT22;49442;45.640;13.812;2023-04-04T08:01:59;6.40;58.60
63313;DHT22;49442;45.640;13.812;2023-04-04T08:04:24;6.50;59.10
63313;DHT22;49442;45.640;13.812;2023-04-04T08:06:50;6.70;59.20
63313;DHT22;49442;45.640;13.812;2023-04-04T08:09:16;6.60;57.50
63313;DHT22;49442;45.640;13.812;2023-04-04T08:11:41;6.70;57.60
63313;DHT22;49442;45.640;13.812;2023-04-04T08:14:08;6.50;56.60
63313;DHT22;49442;45.640;13.812;2023-04-04T08:16:36;6.40;56.90
63313;DHT22;49442;45.640;13.812;2023-04-04T08:19:03;6.50;58.30
63313;DHT22;49442;45.640;13.812;2023-04-04T08:21:29;6.50;56.70
63313;DHT22;49442;45.640;13.812;2023-04-04T08:23:54;6.80;58.00
63313;DHT22;49442;45.640;13.812;2023-04-04T08:26:20;7.00;58.50
63313;DHT22;49442;45.640;13.812;2023-04-04T08:28:46;7.20;57.90
63313;DHT22;49442;45.640;13.812;2023-04-04T08:31:12;7.10;55.50
63313;DHT22;49442;45.640;13.812;2023-04-04T08:33:38;7.20;56.40
63313;DHT22;49442;45.640;13.812;2023-04-04T08:36:04;7.30;57.40
63313;DHT22;49442;45.640;13.812;2023-04-04T08:38:29;7.10;56.50
63313;DHT22;49442;45.640;13.812;2023-04-04T08:40:55;7.40;56.80
63313;DHT22;49442;45.640;13.812;2023-04-04T08:43:22;7.70;57.60
63313;DHT22;49442;45.640;13.812;2023-04-04T08:45:49;7.80;54.80
63313;DHT22;49442;45.640;13.812;2023-04-04T08:48:19;7.80;55.60
63313;DHT22;49442;45.640;13.812;2023-04-04T08:50:45;10.30;53.50
63313;DHT22;49442;45.640;13.812;2023-04-04T08:53:13;11.70;51.10
63313;DHT22;49442;45.640;13.812;2023-04-04T08:55:41;12.50;48.40
63313;DHT22;49442;45.640;13.812;2023-04-04T08:58:07;13.90;48.30
63313;DHT22;49442;45.640;13.812;2023-04-04T09:00:33;12.20;47.60
63313;DHT22;49442;45.640;13.812;2023-04-04T09:03:19;10.80;50.10
63313;DHT22;49442;45.640;13.812;2023-04-04T09:05:45;10.80;50.60
63313;DHT22;49442;45.640;13.812;2023-04-04T09:08:12;10.30;50.70
63313;DHT22;49442;45.640;13.812;2023-04-04T09:10:39;10.30;50.50
63313;DHT22;49442;45.640;13.812;2023-04-04T09:13:08;10.20;50.10
63313;DHT22;49442;45.640;13.812;2023-04-04T09:15:35;9.90;53.10
63313;DHT22;49442;45.640;13.812;2023-04-04T09:18:03;10.00;51.60
63313;DHT22;49442;45.640;13.812;2023-04-04T09:20:43;10.00;52.30
63313;DHT22;49442;45.640;13.812;2023-04-04T09:23:17;9.60;50.40
63313;DHT22;49442;45.640;13.812;2023-04-04T09:25:50;9.10;50.50
63313;DHT22;49442;45.640;13.812;2023-04-04T09:28:17;9.30;53.60
63313;DHT22;49442;45.640;13.812;2023-04-04T09:30:43;9.40;52.50
63313;DHT22;49442;45.640;13.812;2023-04-04T09:33:11;9.50;53.00
63313;DHT22;49442;45.640;13.812;2023-04-04T09:35:38;9.40;50.30
63313;DHT22;49442;45.640;13.812;2023-04-04T09:38:06;9.20;51.00
63313;DHT22;49442;45.640;13.812;2023-04-04T09:40:34;9.10;51.40
63313;DHT22;49442;45.640;13.812;2023-04-04T09:43:01;9.10;51.70
63313;DHT22;49442;45.640;13.812;2023-04-04T09:45:32;9.30;52.30
63313;DHT22;49442;45.640;13.812;2023-04-04T09:47:59;9.20;53.20
63313;DHT22;49442;45.640;13.812;2023-04-04T09:50:25;9.40;52.50
63313;DHT22;49442;45.640;13.812;2023-04-04T09:52:58;9.20;51.20
63313;DHT22;49442;45.640;13.812;2023-04-04T09:55:35;9.20;52.90
63313;DHT22;49442;45.640;13.812;2023-04-04T09:58:13;9.30;51.50
63313;DHT22;49442;45.640;13.812;2023-04-04T10:00:41;9.20;50.90
63313;DHT22;49442;45.640;13.812;2023-04-04T10:03:10;9.30;51.90
63313;DHT22;49442;45.640;13.812;2023-04-04T10:05:37;9.40;52.00
63313;DHT22;49442;45.640;13.812;2023-04-04T10:08:17;9.50;51.50
63313;DHT22;49442;45.640;13.812;2023-04-04T10:10:49;9.10;51.30
63313;DHT22;49442;45.640;13.812;2023-04-04T10:13:26;9.40;51.90
63313;DHT22;49442;45.640;13.812;2023-04-04T10:15:56;9.50;52.90
63313;DHT22;49442;45.640;13.812;2023-04-04T10:18:30;9.70;51.80
63313;DHT22;49442;45.640;13.812;2023-04-04T10:21:01;9.90;52.10
63313;DHT22;49442;45.640;13.812;2023-04-04T10:23:27;10.00;51.60
63313;DHT22;49442;45.640;13.812;2023-04-04T10:25:54;10.00;51.60
63313;DHT22;49442;45.640;13.812;2023-04-04T10:28:21;10.00;50.30
63313;DHT22;49442;45.640;13.812;2023-04-04T10:31:13;10.00;51.00
63313;DHT22;49442;45.640;13.812;2023-04-04T10:34:14;9.90;50.70
63313;DHT22;49442;45.640;13.812;2023-04-04T10:36:49;9.90;50.70
63313;DHT22;49442;45.640;13.812;2023-04-04T10:39:52;10.00;52.00
63313;DHT22;49442;45.640;13.812;2023-04-04T10:42:19;10.00;50.70
63313;DHT22;49442;45.640;13.812;2023-04-04T10:44:47;10.10;50.40
63313;DHT22;49442;45.640;13.812;2023-04-04T10:47:17;10.20;51.00
63313;DHT22;49442;45.640;13.812;2023-04-04T10:49:43;10.20;51.00
63313;DHT22;49442;45.640;13.812;2023-04-04T10:52:11;10.40;51.60
63313;DHT22;49442;45.640;13.812;2023-04-04T10:54:39;10.40;50.80
63313;DHT22;49442;45.640;13.812;2023-04-04T10:57:05;10.40;50.90
63313;DHT22;49442;45.640;13.812;2023-04-04T10:59:31;10.50;52.20
63313;DHT22;49442;45.640;13.812;2023-04-04T11:02:01;10.40;50.50
63313;DHT22;49442;45.640;13.812;2023-04-04T11:04:31;10.40;49.80
63313;DHT22;49442;45.640;13.812;2023-04-04T11:09:51;10.70;51.10
63313;DHT22;49442;45.640;13.812;2023-04-04T11:12:31;10.70;51.10
63313;DHT22;49442;45.640;13.812;2023-04-04T11:20:21;10.70;50.70
63313;DHT22;49442;45.640;13.812;2023-04-04T11:23:17;10.80;49.90
63313;DHT22;49442;45.640;13.812;2023-04-04T11:28:27;10.40;51.20
63313;DHT22;49442;45.640;13.812;2023-04-04T11:34:06;10.70;52.20
63313;DHT22;49442;45.640;13.812;2023-04-04T11:39:32;10.90;48.40
63313;DHT22;49442;45.640;13.812;2023-04-04T11:42:11;11.00;50.30
63313;DHT22;49442;45.640;13.812;2023-04-04T11:47:13;11.20;50.20
63313;DHT22;49442;45.640;13.812;2023-04-04T11:49:45;11.30;48.00
63313;DHT22;49442;45.640;13.812;2023-04-04T11:52:15;11.40;48.90
63313;DHT22;49442;45.640;13.812;2023-04-04T11:54:43;11.50;48.30
63313;DHT22;49442;45.640;13.812;2023-04-04T11:57:13;11.60;49.00
63313;DHT22;49442;45.640;13.812;2023-04-04T11:59:44;11.70;49.00
63313;DHT22;49442;45.640;13.812;2023-04-04T12:02:12;11.60;47.70
63313;DHT22;49442;45.640;13.812;2023-04-04T12:04:39;11.60;48.00
63313;DHT22;49442;45.640;13.812;2023-04-04T12:07:12;11.70;48.80
63313;DHT22;49442;45.640;13.812;2023-04-04T12:09:39;11.80;48.20
63313;DHT22;49442;45.640;13.812;2023-04-04T12:12:05;11.60;48.20
63313;DHT22;49442;45.640;13.812;2023-04-04T12:14:32;11.60;49.20
63313;DHT22;49442;45.640;13.812;2023-04-04T12:16:58;11.80;49.90
63313;DHT22;49442;45.640;13.812;2023-04-04T12:19:26;11.90;50.10
63313;DHT22;49442;45.640;13.812;2023-04-04T12:21:53;11.90;48.70
63313;DHT22;49442;45.640;13.812;2023-04-04T12:24:19;12.00;48.60
63313;DHT22;49442;45.640;13.812;2023-04-04T12:26:47;12.00;48.50
63313;DHT22;49442;45.640;13.812;2023-04-04T12:29:15;12.00;48.00
63313;DHT22;49442;45.640;13.812;2023-04-04T12:31:43;12.10;49.40
63313;DHT22;49442;45.640;13.812;2023-04-04T12:34:21;12.20;49.70
63313;DHT22;49442;45.640;13.812;2023-04-04T12:36:51;12.20;47.10
63313;DHT22;49442;45.640;13.812;2023-04-04T12:39:19;12.30;48.70
63313;DHT22;49442;45.640;13.812;2023-04-04T12:41:58;12.30;48.20
63313;DHT22;49442;45.640;13.812;2023-04-04T12:44:35;12.30;48.80
63313;DHT22;49442;45.640;13.812;2023-04-04T12:47:08;12.20;48.60
63313;DHT22;49442;45.640;13.812;2023-04-04T12:49:42;12.20;49.30
63313;DHT22;49442;45.640;13.812;2023-04-04T12:52:19;12.20;49.50
63313;DHT22;49442;45.640;13.812;2023-04-04T12:54:46;12.40;48.70
63313;DHT22;49442;45.640;13.812;2023-04-04T12:57:17;12.40;48.10
63313;DHT22;49442;45.640;13.812;2023-04-04T12:59:46;12.60;47.50
63313;DHT22;49442;45.640;13.812;2023-04-04T13:02:18;12.60;46.90
63313;DHT22;49442;45.640;13.812;2023-04-04T13:04:46;12.70;47.10
63313;DHT22;49442;45.640;13.812;2023-04-04T13:09:54;12.80;46.50
63313;DHT22;49442;45.640;13.812;2023-04-04T13:12:22;12.80;47.70
63313;DHT22;49442;45.640;13.812;2023-04-04T13:15:03;12.70;48.90
63313;DHT22;49442;45.640;13.812;2023-04-04T13:17:44;12.90;48.90
63313;DHT22;49442;45.640;13.812;2023-04-04T13:20:11;12.90;48.80
63313;DHT22;49442;45.640;13.812;2023-04-04T13:22:38;12.80;47.70
63313;DHT22;49442;45.640;13.812;2023-04-04T13:25:05;13.00;49.40
63313;DHT22;49442;45.640;13.812;2023-04-04T13:27:31;13.10;48.80
63313;DHT22;49442;45.640;13.812;2023-04-04T13:29:57;13.20;48.20
63313;DHT22;49442;45.640;13.812;2023-04-04T13:32:23;13.10;48.30
63313;DHT22;49442;45.640;13.812;2023-04-04T13:34:48;13.00;48.90
63313;DHT22;49442;45.640;13.812;2023-04-04T13:37:14;13.20;48.10
63313;DHT22;49442;45.640;13.812;2023-04-04T13:39:40;13.20;47.00
63313;DHT22;49442;45.640;13.812;2023-04-04T13:42:06;13.10;46.70
63313;DHT22;49442;45.640;13.812;2023-04-04T13:44:32;13.10;46.70
63313;DHT22;49442;45.640;13.812;2023-04-04T13:46:58;13.00;46.70
63313;DHT22;49442;45.640;13.812;2023-04-04T13:49:24;13.10;48.00
63313;DHT22;49442;45.640;13.812;2023-04-04T13:51:50;13.20;48.00
63313;DHT22;49442;45.640;13.812;2023-04-04T13:54:15;13.20;47.50
63313;DHT22;49442;45.640;13.812;2023-04-04T13:56:41;13.20;45.70
63313;DHT22;49442;45.640;13.812;2023-04-04T13:59:07;12.90;46.30
63313;DHT22;49442;45.640;13.812;2023-04-04T14:01:33;12.90;47.50
63313;DHT22;49442;45.640;13.812;2023-04-04T14:03:59;13.00;47.80
63313;DHT22;49442;45.640;13.812;2023-04-04T14:06:24;13.00;47.10
63313;DHT22;49442;45.640;13.812;2023-04-04T14:08:51;12.70;46.60
63313;DHT22;49442;45.640;13.812;2023-04-04T14:11:17;12.80;46.50
63313;DHT22;49442;45.640;13.812;2023-04-04T14:13:43;12.80;47.50
63313;DHT22;49442;45.640;13.812;2023-04-04T14:16:09;12.80;46.30
63313;DHT22;49442;45.640;13.812;2023-04-04T14:18:35;12.90;46.60
63313;DHT22;49442;45.640;13.812;2023-04-04T14:21:02;12.90;47.40
63313;DHT22;49442;45.640;13.812;2023-04-04T14:23:28;12.80;47.40
63313;DHT22;49442;45.640;13.812;2023-04-04T14:25:58;12.70;46.70
63313;DHT22;49442;45.640;13.812;2023-04-04T14:28:24;12.60;47.40
63313;DHT22;49442;45.640;13.812;2023-04-04T14:30:49;12.80;47.30
63313;DHT22;49442;45.640;13.812;2023-04-04T14:33:16;13.00;47.20
63313;DHT22;49442;45.640;13.812;2023-04-04T14:35:41;13.00;46.60
63313;DHT22;49442;45.640;13.812;2023-04-04T14:38:07;13.10;46.60
63313;DHT22;49442;45.640;13.812;2023-04-04T14:40:33;13.10;45.60
63313;DHT22;49442;45.640;13.812;2023-04-04T14:42:58;12.90;47.10
63313;DHT22;49442;45.640;13.812;2023-04-04T14:45:25;13.00;47.70
63313;DHT22;49442;45.640;13.812;2023-04-04T14:47:50;13.00;45.90
63313;DHT22;49442;45.640;13.812;2023-04-04T14:50:16;13.00;46.40
63313;DHT22;49442;45.640;13.812;2023-04-04T14:52:42;13.00;46.10
63313;DHT22;49442;45.640;13.812;2023-04-04T14:55:08;13.00;45.30
63313;DHT22;49442;45.640;13.812;2023-04-04T14:57:34;13.10;47.60
63313;DHT22;49442;45.640;13.812;2023-04-04T15:00:00;13.00;45.40
63313;DHT22;49442;45.640;13.812;2023-04-04T15:02:25;12.90;44.70
63313;DHT22;49442;45.640;13.812;2023-04-04T15:04:51;12.90;45.70
63313;DHT22;49442;45.640;13.812;2023-04-04T15:07:17;13.00;45.90
63313;DHT22;49442;45.640;13.812;2023-04-04T15:09:42;13.00;45.70
63313;DHT22;49442;45.640;13.812;2023-04-04T15:12:08;12.90;45.50
63313;DHT22;49442;45.640;13.812;2023-04-04T15:14:34;13.20;45.50
63313;DHT22;49442;45.640;13.812;2023-04-04T15:17:01;13.40;44.70
63313;DHT22;49442;45.640;13.812;2023-04-04T15:19:26;13.80;45.40
63313;DHT22;49442;45.640;13.812;2023-04-04T15:21:52;13.80;44.50
63313;DHT22;49442;45.640;13.812;2023-04-04T15:24:21;13.40;44.70
63313;DHT22;49442;45.640;13.812;2023-04-04T15:26:47;13.00;46.10
63313;DHT22;49442;45.640;13.812;2023-04-04T15:29:12;13.00;46.50
63313;DHT22;49442;45.640;13.812;2023-04-04T15:31:40;12.80;46.40
63313;DHT22;49442;45.640;13.812;2023-04-04T15:34:05;12.70;46.70
63313;DHT22;49442;45.640;13.812;2023-04-04T15:36:31;12.80;47.20
63313;DHT22;49442;45.640;13.812;2023-04-04T15:38:58;12.80;47.70
63313;DHT22;49442;45.640;13.812;2023-04-04T15:41:24;12.70;47.60
63313;DHT22;49442;45.640;13.812;2023-04-04T15:43:49;12.60;47.60
63313;DHT22;49442;45.640;13.812;2023-04-04T15:46:15;12.60;47.50
63313;DHT22;49442;45.640;13.812;2023-04-04T15:48:41;12.50;46.10
63313;DHT22;49442;45.640;13.812;2023-04-04T15:51:07;12.30;48.00